Time;durP1;ratioP1;P1;durP2;ratioP2;P2;SDS_P1;SDS_P2;PMS_P1;PMS_P2;Temp;Humidity;BMP_temperature;BMP_pressure;BME280_temperature;BME280_humidity;BME280_pressure;Samples;Min_cycle;Max_cycle;Signal;HPM_P1;HPM_P2
2021/09/13 00:01:35;;;;;;;81.10;49.58;;;15.80;78.10;;;;;;5054624;28;20033;-68
2021/09/13 00:04:00;;;;;;;100.50;57.92;;;15.80;78.40;;;;;;5054535;28;20036;-68
2021/09/13 00:06:26;;;;;;;88.75;51.35;;;15.80;78.30;;;;;;5055991;28;20463;-68
2021/09/13 00:08:52;;;;;;;83.30;50.88;;;15.80;78.50;;;;;;5035665;28;20439;-68
2021/09/13 00:11:18;;;;;;;79.45;48.92;;;15.80;78.70;;;;;;5035815;28;20021;-69
2021/09/13 00:13:44;;;;;;;87.53;50.40;;;15.80;78.80;;;;;;5036194;28;20093;-69
2021/09/13 00:16:09;;;;;;;74.70;45.63;;;15.90;79.00;;;;;;5034696;28;20361;-68
2021/09/13 00:18:35;;;;;;;74.63;44.00;;;15.90;79.10;;;;;;5036111;28;20063;-68
2021/09/13 00:21:01;;;;;;;73.95;46.40;;;15.90;79.00;;;;;;5035788;28;20030;-68
2021/09/13 00:23:26;;;;;;;81.28;50.70;;;15.90;79.10;;;;;;5035622;28;20504;-69
2021/09/13 00:25:52;;;;;;;79.38;49.92;;;15.80;79.10;;;;;;5035514;28;20029;-68
2021/09/13 00:28:18;;;;;;;62.30;42.60;;;15.80;79.50;;;;;;5034710;28;20028;-68
2021/09/13 00:30:43;;;;;;;67.72;45.03;;;15.70;79.60;;;;;;5036115;28;20059;-68
2021/09/13 00:33:09;;;;;;;67.38;43.65;;;15.60;79.60;;;;;;5035314;28;20108;-68
2021/09/13 00:35:35;;;;;;;63.60;42.90;;;15.50;79.70;;;;;;5035805;28;20036;-68
2021/09/13 00:38:00;;;;;;;68.05;44.42;;;15.50;80.00;;;;;;5035607;28;20396;-68
2021/09/13 00:40:26;;;;;;;60.90;40.00;;;15.40;80.40;;;;;;5039913;28;20029;-69
2021/09/13 00:42:52;;;;;;;55.67;39.80;;;15.50;80.90;;;;;;5054050;28;20127;-68
2021/09/13 00:45:18;;;;;;;55.58;39.13;;;15.50;81.10;;;;;;5055597;28;20031;-68
2021/09/13 00:47:43;;;;;;;54.75;38.83;;;15.50;81.30;;;;;;5053810;28;20032;-68
2021/09/13 00:50:10;;;;;;;63.97;41.03;;;15.50;81.30;;;;;;5055193;28;20029;-68
2021/09/13 00:52:35;;;;;;;59.03;40.90;;;15.50;81.20;;;;;;5055215;28;20044;-68
2021/09/13 00:55:03;;;;;;;53.13;37.53;;;15.50;81.20;;;;;;5054915;28;20444;-69
2021/09/13 00:57:29;;;;;;;63.30;41.33;;;15.50;81.60;;;;;;5053827;28;20025;-68
2021/09/13 00:59:55;;;;;;;60.30;40.75;;;15.50;81.50;;;;;;5055054;28;20021;-68
2021/09/13 01:02:22;;;;;;;55.67;38.60;;;15.50;81.10;;;;;;5052386;28;20041;-68
2021/09/13 01:04:48;;;;;;;61.72;42.70;;;15.50;81.20;;;;;;5054953;28;20060;-69
2021/09/13 01:07:15;;;;;;;49.85;35.83;;;15.50;81.00;;;;;;5054857;28;20055;-68
2021/09/13 01:09:41;;;;;;;49.63;37.22;;;15.40;81.40;;;;;;5054894;28;20025;-68
2021/09/13 01:12:08;;;;;;;50.58;36.65;;;15.50;81.50;;;;;;5053801;28;20065;-69
2021/09/13 01:14:36;;;;;;;50.05;35.45;;;15.40;81.50;;;;;;5053466;28;20032;-68
2021/09/13 01:17:02;;;;;;;49.95;35.42;;;15.50;81.50;;;;;;5054745;28;20056;-67
2021/09/13 01:19:28;;;;;;;59.65;39.65;;;15.50;81.30;;;;;;5054543;28;20033;-67
2021/09/13 01:21:58;;;;;;;45.30;33.17;;;15.50;80.80;;;;;;5053099;28;20091;-67
2021/09/13 01:24:23;;;;;;;51.17;36.00;;;15.50;81.10;;;;;;5053031;28;20083;-68
2021/09/13 01:26:49;;;;;;;55.88;38.72;;;15.50;81.10;;;;;;5053331;28;20422;-68
2021/09/13 01:29:15;;;;;;;51.35;37.28;;;15.40;80.80;;;;;;5053366;28;20463;-68
2021/09/13 01:31:40;;;;;;;52.78;38.88;;;15.30;80.80;;;;;;5050106;28;20460;-69
2021/09/13 01:34:06;;;;;;;56.20;36.03;;;15.30;80.60;;;;;;5054265;28;20040;-68
2021/09/13 01:36:32;;;;;;;48.03;35.42;;;15.20;81.10;;;;;;5054306;28;20029;-67
2021/09/13 01:38:57;;;;;;;52.03;35.40;;;15.20;81.60;;;;;;5054296;28;20025;-68
2021/09/13 01:41:23;;;;;;;54.47;36.90;;;15.20;82.20;;;;;;5054183;28;20421;-68
2021/09/13 01:43:49;;;;;;;52.80;37.53;;;15.20;82.30;;;;;;5054569;28;20036;-68
2021/09/13 01:46:15;;;;;;;52.47;35.58;;;15.20;82.00;;;;;;5052881;28;20036;-68
2021/09/13 01:48:41;;;;;;;57.13;38.60;;;15.20;82.10;;;;;;5053943;28;20037;-68
2021/09/13 01:51:08;;;;;;;51.60;37.10;;;15.10;81.50;;;;;;5053948;28;20025;-68
2021/09/13 01:53:34;;;;;;;55.33;38.13;;;15.10;81.70;;;;;;5053835;28;20017;-68
2021/09/13 01:55:59;;;;;;;57.58;38.42;;;15.00;81.50;;;;;;5052642;28;20075;-68
2021/09/13 01:58:25;;;;;;;56.55;39.85;;;15.00;81.00;;;;;;5051822;28;20060;-68
2021/09/13 02:00:51;;;;;;;53.50;35.60;;;14.90;81.00;;;;;;5051386;28;20025;-68
2021/09/13 02:03:16;;;;;;;57.05;36.95;;;14.90;81.60;;;;;;5032437;28;20041;-68
2021/09/13 02:05:42;;;;;;;54.08;36.92;;;14.90;82.20;;;;;;5032583;28;20053;-67
2021/09/13 02:08:08;;;;;;;52.58;37.40;;;14.80;82.40;;;;;;5033642;28;20060;-68
2021/09/13 02:10:33;;;;;;;52.75;35.90;;;14.90;82.60;;;;;;5032647;28;20042;-68
2021/09/13 02:12:59;;;;;;;48.83;35.45;;;14.90;82.70;;;;;;5034117;28;20029;-67
2021/09/13 02:15:25;;;;;;;52.95;36.38;;;14.90;83.20;;;;;;5032624;28;20388;-68
2021/09/13 02:17:50;;;;;;;47.97;34.78;;;15.00;83.10;;;;;;5032541;28;20026;-68
2021/09/13 02:20:16;;;;;;;48.33;35.42;;;14.90;82.90;;;;;;5034118;28;20025;-68
2021/09/13 02:22:42;;;;;;;48.30;34.53;;;15.00;83.10;;;;;;5033552;28;20116;-68
2021/09/13 02:25:08;;;;;;;51.85;35.75;;;15.00;83.40;;;;;;5033505;28;20032;-68
2021/09/13 02:27:34;;;;;;;55.83;35.22;;;15.00;83.50;;;;;;5033855;28;20464;-67
2021/09/13 02:30:00;;;;;;;50.75;35.08;;;15.00;83.60;;;;;;5033543;28;20045;-68
2021/09/13 02:32:26;;;;;;;48.22;34.92;;;15.00;83.90;;;;;;5033267;28;20034;-68
2021/09/13 02:34:51;;;;;;;50.25;35.55;;;15.00;83.90;;;;;;5033627;28;20057;-67
2021/09/13 02:37:17;;;;;;;47.15;34.55;;;15.00;83.90;;;;;;5033331;28;20029;-68
2021/09/13 02:39:43;;;;;;;49.00;35.28;;;15.00;84.00;;;;;;5032722;28;20034;-68
2021/09/13 02:42:09;;;;;;;52.60;35.85;;;15.00;84.20;;;;;;5033688;28;20030;-68
2021/09/13 02:44:34;;;;;;;53.55;36.22;;;15.00;83.90;;;;;;5032200;28;20404;-68
2021/09/13 02:47:00;;;;;;;53.25;36.17;;;14.80;83.70;;;;;;5033341;28;20091;-69
2021/09/13 02:49:26;;;;;;;57.83;36.22;;;14.70;83.90;;;;;;5032262;28;20180;-68
2021/09/13 02:51:51;;;;;;;52.15;34.67;;;14.70;84.30;;;;;;5031917;28;20033;-68
2021/09/13 02:54:17;;;;;;;49.35;34.85;;;14.70;84.40;;;;;;5032128;28;20423;-68
2021/09/13 02:56:43;;;;;;;47.55;36.05;;;14.60;84.10;;;;;;5032118;28;20026;-68
2021/09/13 02:59:08;;;;;;;49.35;35.05;;;14.60;84.00;;;;;;5033856;28;20108;-67
2021/09/13 03:01:34;;;;;;;61.45;38.08;;;14.50;84.50;;;;;;5031561;28;20531;-69
2021/09/13 03:04:00;;;;;;;56.28;36.78;;;14.40;85.00;;;;;;5032011;28;20175;-69
2021/09/13 03:06:25;;;;;;;49.55;34.83;;;14.40;85.40;;;;;;5033192;28;20034;-70
2021/09/13 03:08:51;;;;;;;53.17;35.60;;;14.50;85.80;;;;;;5033908;28;20055;-69
2021/09/13 03:11:17;;;;;;;51.47;36.80;;;14.60;85.70;;;;;;5036994;28;20425;-69
2021/09/13 03:13:42;;;;;;;55.55;40.65;;;14.60;85.70;;;;;;5037043;28;20033;-69
2021/09/13 03:16:08;;;;;;;49.70;38.90;;;14.70;85.90;;;;;;5036922;28;20026;-70
2021/09/13 03:18:34;;;;;;;60.88;44.03;;;14.70;85.70;;;;;;5036776;28;20080;-71
2021/09/13 03:20:59;;;;;;;68.57;46.80;;;14.70;85.60;;;;;;5036693;28;20460;-70
2021/09/13 03:23:25;;;;;;;74.03;44.28;;;14.80;85.70;;;;;;5036827;28;20043;-70
2021/09/13 03:25:50;;;;;;;60.95;41.53;;;14.80;85.20;;;;;;5035469;28;20479;-69
2021/09/13 03:28:16;;;;;;;55.00;37.97;;;14.70;84.80;;;;;;5036853;28;20047;-69
2021/09/13 03:30:42;;;;;;;49.10;37.70;;;14.60;84.60;;;;;;5036629;28;20028;-75
2021/09/13 03:33:07;;;;;;;52.38;37.42;;;14.60;85.00;;;;;;5053377;28;20044;-71
2021/09/13 03:35:33;;;;;;;48.33;35.53;;;14.50;85.10;;;;;;5056723;28;20056;-70
2021/09/13 03:37:59;;;;;;;51.40;35.90;;;14.50;85.00;;;;;;5056373;28;20063;-69
2021/09/13 03:40:24;;;;;;;44.42;34.65;;;14.50;85.50;;;;;;5056479;28;20032;-71
2021/09/13 03:42:50;;;;;;;47.78;34.30;;;14.50;85.60;;;;;;5056804;28;20447;-69
2021/09/13 03:45:16;;;;;;;44.15;34.38;;;14.60;86.50;;;;;;5054994;28;20469;-69
2021/09/13 03:47:41;;;;;;;45.70;32.15;;;14.70;85.80;;;;;;5054931;28;20056;-69
2021/09/13 03:50:08;;;;;;;46.33;34.13;;;14.80;85.40;;;;;;5054843;28;20024;-69
2021/09/13 03:52:33;;;;;;;46.38;31.80;;;14.80;85.00;;;;;;5056154;28;20039;-69
2021/09/13 03:54:59;;;;;;;48.70;32.42;;;15.00;84.80;;;;;;5054745;28;20029;-70
2021/09/13 03:57:24;;;;;;;49.05;32.00;;;15.20;84.50;;;;;;5054812;28;20024;-71
2021/09/13 03:59:50;;;;;;;41.22;30.27;;;15.40;83.30;;;;;;5054620;28;20049;-70
2021/09/13 04:02:16;;;;;;;46.25;31.50;;;15.60;83.10;;;;;;5036597;28;20038;-69
2021/09/13 04:04:44;;;;;;;42.92;31.15;;;15.90;82.20;;;;;;5036190;28;20042;-70
2021/09/13 04:12:10;;;;;;;42.90;30.05;;;16.70;79.90;;;;;;5035734;28;20036;-69
2021/09/13 04:14:36;;;;;;;47.92;28.85;;;17.10;78.90;;;;;;5036016;28;20372;-71
2021/09/13 04:17:02;;;;;;;40.67;28.75;;;17.30;77.70;;;;;;5038970;28;20026;-68
2021/09/13 04:19:27;;;;;;;42.13;29.60;;;17.70;76.80;;;;;;5054177;28;20067;-67
2021/09/13 04:21:54;;;;;;;39.80;28.30;;;18.10;75.70;;;;;;5049709;28;20030;-67
2021/09/13 04:24:20;;;;;;;39.45;30.25;;;18.40;74.60;;;;;;5061206;28;20107;-72
2021/09/13 04:26:46;;;;;;;42.05;33.10;;;18.80;73.40;;;;;;5066072;28;20056;-70
2021/09/13 04:29:13;;;;;;;45.25;34.63;;;19.20;72.40;;;;;;5054107;28;20032;-69
2021/09/13 04:31:39;;;;;;;43.72;35.15;;;19.50;71.20;;;;;;5047221;28;20042;-69
2021/09/13 04:34:06;;;;;;;43.53;33.65;;;19.80;70.30;;;;;;5068189;28;20505;-69
2021/09/13 04:36:32;;;;;;;45.70;33.67;;;20.20;69.40;;;;;;5055249;28;20352;-68
2021/09/13 04:38:57;;;;;;;46.30;34.05;;;20.60;68.50;;;;;;5054060;28;20166;-70
2021/09/13 04:41:23;;;;;;;44.72;32.60;;;20.90;67.30;;;;;;5055186;28;20032;-69
2021/09/13 04:43:49;;;;;;;44.92;31.98;;;21.20;66.50;;;;;;5054128;28;20124;-69
2021/09/13 04:46:14;;;;;;;38.90;30.00;;;21.50;65.70;;;;;;5054991;28;20029;-70
2021/09/13 04:48:40;;;;;;;38.55;29.33;;;21.90;64.80;;;;;;5054997;28;20095;-69
2021/09/13 04:51:06;;;;;;;38.95;29.27;;;22.30;64.00;;;;;;5053917;28;20025;-68
2021/09/13 04:53:32;;;;;;;43.78;29.10;;;22.60;62.90;;;;;;5068550;28;20116;-69
2021/09/13 04:55:58;;;;;;;40.20;28.45;;;22.80;62.10;;;;;;5075011;28;20050;-69
2021/09/13 04:58:23;;;;;;;38.42;26.85;;;22.90;61.60;;;;;;5072357;28;20099;-68
2021/09/13 05:00:49;;;;;;;44.22;27.65;;;23.10;61.40;;;;;;5046561;28;20036;-69
2021/09/13 05:03:15;;;;;;;42.65;27.58;;;23.30;61.00;;;;;;5034686;28;20046;-71
2021/09/13 05:05:40;;;;;;;42.90;27.50;;;23.50;60.70;;;;;;5033551;28;20095;-70
2021/09/13 05:08:06;;;;;;;36.72;26.42;;;23.70;60.20;;;;;;5074157;28;20028;-70
2021/09/13 05:10:32;;;;;;;36.17;26.08;;;23.90;59.90;;;;;;5068604;28;20017;-70
2021/09/13 05:12:58;;;;;;;37.13;25.08;;;24.20;59.50;;;;;;5053231;28;20438;-69
2021/09/13 05:15:24;;;;;;;35.88;26.08;;;24.40;59.00;;;;;;5053336;28;20025;-72
2021/09/13 05:17:49;;;;;;;35.03;24.77;;;24.70;58.50;;;;;;5063723;28;20032;-70
2021/09/13 05:20:15;;;;;;;33.80;25.73;;;24.90;57.90;;;;;;5073367;28;20063;-70
2021/09/13 05:22:42;;;;;;;35.28;23.40;;;25.20;57.30;;;;;;5074777;28;20029;-70
2021/09/13 05:25:08;;;;;;;36.10;25.33;;;25.50;57.00;;;;;;5058037;28;20036;-74
2021/09/13 05:27:34;;;;;;;41.03;27.00;;;25.80;56.50;;;;;;5052947;28;20489;-73
2021/09/13 05:29:59;;;;;;;42.22;26.33;;;25.90;56.10;;;;;;5056940;28;20028;-70
2021/09/13 05:32:25;;;;;;;38.47;26.00;;;26.00;55.40;;;;;;5054798;28;20036;-71
2021/09/13 05:34:51;;;;;;;42.72;26.65;;;25.80;55.20;;;;;;5073420;28;20028;-77
2021/09/13 05:37:17;;;;;;;43.15;28.38;;;25.60;55.40;;;;;;5073082;28;20078;-71
2021/09/13 05:39:43;;;;;;;40.38;27.45;;;25.40;55.80;;;;;;5062562;28;20029;-71
2021/09/13 05:42:08;;;;;;;42.20;28.40;;;25.20;56.00;;;;;;5052879;28;20074;-69
2021/09/13 05:44:34;;;;;;;39.17;28.63;;;24.90;56.50;;;;;;5053745;28;20053;-71
2021/09/13 05:47:00;;;;;;;43.75;26.90;;;24.90;57.50;;;;;;5053675;28;20033;-68
2021/09/13 05:49:25;;;;;;;39.22;26.58;;;25.10;57.40;;;;;;5068615;28;20032;-68
2021/09/13 05:51:52;;;;;;;41.47;26.60;;;25.20;57.20;;;;;;5072984;28;20082;-67
2021/09/13 05:54:22;;;;;;;37.95;25.95;;;25.60;57.20;;;;;;5074087;28;20025;-67
2021/09/13 05:56:55;;;;;;;40.65;26.38;;;26.00;56.40;;;;;;5062803;28;20112;-74
2021/09/13 05:59:22;;;;;;;35.60;25.92;;;26.40;55.60;;;;;;5053734;28;20033;-69
2021/09/13 06:01:49;;;;;;;34.47;25.73;;;26.90;55.40;;;;;;5051950;28;20041;-76
2021/09/13 06:04:15;;;;;;;36.05;26.52;;;27.50;54.60;;;;;;5072227;28;20047;-68
2021/09/13 06:06:41;;;;;;;41.42;26.58;;;27.70;53.60;;;;;;5073990;28;20589;-67
2021/09/13 06:09:07;;;;;;;36.90;26.75;;;27.70;53.20;;;;;;5055025;28;20112;-68
2021/09/13 06:11:33;;;;;;;39.25;27.52;;;28.00;52.90;;;;;;5053411;28;20029;-66
2021/09/13 06:13:59;;;;;;;42.10;29.42;;;28.30;52.60;;;;;;5053404;28;20025;-66
2021/09/13 06:16:25;;;;;;;40.03;29.05;;;28.60;52.20;;;;;;5072751;28;20029;-62
2021/09/13 06:18:51;;;;;;;39.75;28.90;;;28.90;51.70;;;;;;5073713;28;20481;-63
2021/09/13 06:21:18;;;;;;;41.13;29.58;;;29.30;51.40;;;;;;5055557;28;20025;-63
2021/09/13 06:23:44;;;;;;;38.72;26.60;;;29.70;50.60;;;;;;5052399;28;20036;-69
2021/09/13 06:26:11;;;;;;;35.10;26.63;;;30.00;49.90;;;;;;5051481;28;20029;-64
2021/09/13 06:28:37;;;;;;;38.38;26.45;;;30.30;49.20;;;;;;5052146;28;20099;-63
2021/09/13 06:31:02;;;;;;;38.08;26.25;;;30.50;49.00;;;;;;5052341;28;20028;-63
2021/09/13 06:33:29;;;;;;;40.08;26.08;;;30.50;48.90;;;;;;5053455;28;20390;-64
2021/09/13 06:35:55;;;;;;;38.38;28.15;;;30.50;48.60;;;;;;5053353;28;20056;-63
2021/09/13 06:38:21;;;;;;;38.83;27.75;;;30.60;48.20;;;;;;5052941;28;20082;-66
2021/09/13 06:40:46;;;;;;;40.85;27.48;;;30.40;48.10;;;;;;5052264;28;20032;-64
2021/09/13 06:43:15;;;;;;;38.40;25.50;;;30.10;48.20;;;;;;5053321;28;20029;-64
2021/09/13 06:45:42;;;;;;;40.00;25.95;;;29.80;48.10;;;;;;5056105;28;20021;-63
2021/09/13 06:48:10;;;;;;;36.38;26.30;;;29.60;48.80;;;;;;5057614;28;20079;-63
2021/09/13 06:50:37;;;;;;;33.45;25.05;;;29.50;49.40;;;;;;5057307;28;20078;-64
2021/09/13 06:53:04;;;;;;;29.65;23.67;;;29.80;49.50;;;;;;5056295;28;20463;-64
2021/09/13 06:55:30;;;;;;;28.35;19.42;;;30.10;49.30;;;;;;5057390;28;20025;-65
2021/09/13 06:57:55;;;;;;;25.40;17.75;;;30.60;48.50;;;;;;5055894;28;20145;-64
2021/09/13 07:00:22;;;;;;;27.77;17.35;;;31.00;47.50;;;;;;5055538;28;20040;-63
2021/09/13 07:02:48;;;;;;;24.42;17.02;;;31.40;47.40;;;;;;5036296;28;20038;-64
2021/09/13 07:05:14;;;;;;;24.90;16.58;;;31.70;46.90;;;;;;5035694;28;20057;-64
2021/09/13 07:07:41;;;;;;;21.55;14.80;;;32.10;46.40;;;;;;5035744;28;20387;-64
2021/09/13 07:10:09;;;;;;;17.83;14.88;;;32.40;45.70;;;;;;5035860;28;20063;-64
2021/09/13 07:12:36;;;;;;;21.48;14.40;;;32.80;44.90;;;;;;5035634;28;20037;-65
2021/09/13 07:15:02;;;;;;;19.90;14.18;;;33.10;44.10;;;;;;5036895;28;20116;-65
2021/09/13 07:17:28;;;;;;;20.02;14.07;;;33.30;43.70;;;;;;5035896;28;20025;-65
2021/09/13 07:19:54;;;;;;;19.08;13.15;;;33.60;43.10;;;;;;5036971;28;20099;-65
2021/09/13 07:22:20;;;;;;;19.60;13.52;;;34.00;42.70;;;;;;5052608;28;20037;-64
2021/09/13 07:24:46;;;;;;;16.05;12.82;;;34.30;42.20;;;;;;5036717;28;20116;-66
2021/09/13 07:27:12;;;;;;;20.17;12.80;;;34.70;42.20;;;;;;5035628;28;20033;-65
2021/09/13 07:29:39;;;;;;;21.80;13.57;;;34.90;41.20;;;;;;5035606;28;20062;-64
2021/09/13 07:32:05;;;;;;;20.10;12.77;;;35.10;40.80;;;;;;5036398;28;20468;-65
2021/09/13 07:34:31;;;;;;;15.52;11.93;;;35.10;40.70;;;;;;5036624;28;20452;-64
2021/09/13 07:36:57;;;;;;;15.38;11.98;;;35.20;40.80;;;;;;5036377;28;20426;-64
2021/09/13 07:39:25;;;;;;;14.32;11.60;;;35.30;40.70;;;;;;5035233;28;20026;-65
2021/09/13 07:41:51;;;;;;;16.60;11.88;;;35.50;40.30;;;;;;5035238;28;20029;-65
2021/09/13 07:44:17;;;;;;;15.68;11.23;;;35.40;40.10;;;;;;5036473;28;20032;-65
2021/09/13 07:46:43;;;;;;;15.00;11.32;;;35.50;39.80;;;;;;5035277;28;20035;-65
2021/09/13 07:49:09;;;;;;;17.50;11.10;;;35.70;39.60;;;;;;5036596;28;20025;-65
2021/09/13 07:51:35;;;;;;;16.20;10.88;;;35.90;39.20;;;;;;5034958;28;20025;-65
2021/09/13 07:54:00;;;;;;;14.20;10.57;;;36.00;38.90;;;;;;5036182;28;20036;-65
2021/09/13 07:56:26;;;;;;;12.52;9.90;;;36.20;39.20;;;;;;5033628;28;20032;-65
2021/09/13 07:58:52;;;;;;;12.88;10.43;;;36.20;38.60;;;;;;5035136;28;20052;-65
2021/09/13 08:01:18;;;;;;;13.90;9.57;;;36.20;38.50;;;;;;5034659;28;20034;-64
2021/09/13 08:03:43;;;;;;;15.65;10.68;;;36.30;38.30;;;;;;5035983;28;20049;-65
2021/09/13 08:06:09;;;;;;;16.02;10.88;;;36.20;37.90;;;;;;5034991;28;20516;-64
2021/09/13 08:08:35;;;;;;;13.15;9.40;;;36.30;38.00;;;;;;5034591;28;20167;-65
2021/09/13 08:11:02;;;;;;;13.35;9.25;;;36.60;38.20;;;;;;5035959;28;20029;-65
2021/09/13 08:13:28;;;;;;;16.77;10.45;;;36.60;37.60;;;;;;5035969;28;20099;-65
2021/09/13 08:15:54;;;;;;;15.07;9.48;;;36.70;37.70;;;;;;5035945;28;20029;-64
2021/09/13 08:18:19;;;;;;;11.65;9.93;;;36.70;37.70;;;;;;5034534;28;20120;-64
2021/09/13 08:20:45;;;;;;;13.65;9.77;;;36.80;37.60;;;;;;5035980;28;20017;-65
2021/09/13 08:23:11;;;;;;;12.40;9.75;;;36.90;37.30;;;;;;5039988;28;20372;-65
2021/09/13 08:25:36;;;;;;;13.05;10.18;;;36.90;37.10;;;;;;5056180;28;20032;-65
2021/09/13 08:28:02;;;;;;;13.15;10.40;;;37.00;37.30;;;;;;5055478;28;20032;-65
2021/09/13 08:30:28;;;;;;;14.75;10.48;;;37.10;37.20;;;;;;5054276;28;20064;-64
2021/09/13 08:32:54;;;;;;;12.98;10.20;;;37.20;37.20;;;;;;5055432;28;20036;-64
2021/09/13 08:35:20;;;;;;;12.30;10.48;;;37.30;37.00;;;;;;5055496;28;20387;-65
2021/09/13 08:37:46;;;;;;;12.50;9.50;;;37.40;36.90;;;;;;5053833;28;20036;-64
2021/09/13 08:40:12;;;;;;;11.07;9.45;;;37.40;36.70;;;;;;5054053;28;20066;-65
2021/09/13 08:42:47;;;;;;;11.00;9.10;;;37.30;36.80;;;;;;5053882;28;20395;-65
2021/09/13 08:45:17;;;;;;;10.35;9.02;;;37.20;36.70;;;;;;5055153;28;20486;-64
2021/09/13 08:53:04;;;;;;;12.80;9.30;;;37.30;36.60;;;;;;5053178;28;20036;-67
2021/09/13 08:55:30;;;;;;;11.27;8.85;;;37.40;36.70;;;;;;5035137;28;20029;-64
2021/09/13 08:57:58;;;;;;;10.75;9.00;;;37.50;36.60;;;;;;5035095;28;20032;-67
2021/09/13 09:00:25;;;;;;;11.73;8.70;;;37.40;36.40;;;;;;5033944;28;20060;-65
2021/09/13 09:02:57;;;;;;;11.93;8.77;;;37.40;36.30;;;;;;5034768;28;20025;-64
2021/09/13 09:05:23;;;;;;;13.45;9.23;;;37.50;36.60;;;;;;5035156;28;20042;-65
2021/09/13 09:07:54;;;;;;;11.32;9.50;;;37.50;36.40;;;;;;5034666;28;20132;-65
2021/09/13 09:10:26;;;;;;;12.85;9.30;;;37.50;36.20;;;;;;5033444;28;20103;-65
2021/09/13 09:12:57;;;;;;;19.45;9.60;;;37.50;36.30;;;;;;5034792;28;20064;-65
2021/09/13 09:15:23;;;;;;;13.10;10.07;;;37.30;36.60;;;;;;5034669;28;20030;-66
2021/09/13 09:17:54;;;;;;;12.98;9.05;;;37.30;36.70;;;;;;5035129;28;20210;-66
2021/09/13 09:20:20;;;;;;;17.13;9.25;;;37.60;36.80;;;;;;5033849;28;20025;-66
2021/09/13 09:22:46;;;;;;;12.80;9.45;;;37.70;36.80;;;;;;5032935;28;20037;-65
2021/09/13 09:25:30;;;;;;;10.73;8.77;;;37.70;36.40;;;;;;5033482;28;20047;-65
2021/09/13 09:27:57;;;;;;;;;;;37.60;36.50;;;;;;5034136;28;20025;-66
2021/09/13 09:30:36;;;;;;;10.77;9.38;;;37.70;36.90;;;;;;5034267;28;19966;-65
2021/09/13 09:33:07;;;;;;;13.98;8.88;;;37.70;36.60;;;;;;5033423;28;20036;-65
2021/09/13 09:35:45;;;;;;;11.90;9.15;;;37.80;36.50;;;;;;5033285;28;20112;-65
2021/09/13 09:38:39;;;;;;;12.63;8.88;;;37.90;36.60;;;;;;5033069;28;20056;-66
2021/09/13 09:41:13;;;;;;;15.25;9.65;;;37.90;36.40;;;;;;5033231;28;20460;-64
2021/09/13 09:43:48;;;;;;;12.10;9.07;;;37.90;36.40;;;;;;5032876;28;20103;-65
2021/09/13 09:46:14;;;;;;;11.45;8.93;;;38.00;36.40;;;;;;5033082;28;20060;-65
2021/09/13 09:48:40;;;;;;;12.45;8.82;;;38.10;36.40;;;;;;5033824;28;20122;-65
2021/09/13 09:51:24;;;;;;;10.23;7.95;;;38.20;36.40;;;;;;5032788;28;20380;-65
2021/09/13 09:53:50;;;;;;;11.18;8.90;;;38.30;36.30;;;;;;5032431;28;20038;-65
2021/09/13 09:56:16;;;;;;;12.07;8.88;;;38.20;36.10;;;;;;5033937;28;20483;-65
2021/09/13 09:58:57;;;;;;;14.75;8.90;;;38.20;36.10;;;;;;5032884;28;20487;-65
2021/09/13 10:01:43;;;;;;;11.68;8.90;;;38.00;36.00;;;;;;5033698;28;20119;-65
2021/09/13 10:04:21;;;;;;;11.35;8.65;;;37.90;36.50;;;;;;5033003;28;20128;-64
2021/09/13 10:06:48;;;;;;;10.57;8.48;;;37.90;35.80;;;;;;5032733;28;20064;-67
2021/09/13 10:09:15;;;;;;;10.75;8.52;;;37.70;35.20;;;;;;5032616;28;20029;-65
2021/09/13 10:11:42;;;;;;;11.65;8.43;;;37.60;35.00;;;;;;5032619;28;20029;-65
2021/09/13 10:14:11;;;;;;;10.00;8.77;;;37.40;34.60;;;;;;5033003;28;20407;-65
2021/09/13 10:16:39;;;;;;;12.50;8.57;;;37.10;35.00;;;;;;5034071;28;20025;-65
2021/09/13 10:19:05;;;;;;;10.80;8.70;;;36.40;35.30;;;;;;5031717;28;20443;-65
2021/09/13 10:21:31;;;;;;;12.15;8.77;;;35.60;36.10;;;;;;5032702;28;20030;-65
2021/09/13 10:23:58;;;;;;;10.35;8.55;;;35.40;36.70;;;;;;5034312;28;20056;-65
2021/09/13 10:26:23;;;;;;;13.75;8.77;;;35.50;36.90;;;;;;5032455;28;20123;-65
2021/09/13 10:29:01;;;;;;;11.25;9.07;;;35.80;36.90;;;;;;5033862;28;20029;-65
2021/09/13 10:31:42;;;;;;;10.73;8.05;;;36.10;36.60;;;;;;5037840;28;20095;-64
2021/09/13 10:34:18;;;;;;;12.25;8.55;;;36.20;36.10;;;;;;5052267;28;20029;-65
2021/09/13 10:37:00;;;;;;;10.20;8.23;;;35.90;35.90;;;;;;5053566;28;20039;-65
2021/09/13 10:39:53;;;;;;;12.93;8.18;;;35.80;35.70;;;;;;5052167;28;20021;-65
2021/09/13 10:42:27;;;;;;;10.73;8.10;;;35.60;35.70;;;;;;5051584;28;20036;-64
2021/09/13 10:45:30;;;;;;;11.65;8.98;;;35.20;35.80;;;;;;5052101;28;20029;-64
2021/09/13 10:47:58;;;;;;;11.57;8.23;;;34.70;36.10;;;;;;5053693;28;20052;-65
2021/09/13 10:50:38;;;;;;;11.02;9.00;;;34.90;36.40;;;;;;5052266;28;20513;-65
2021/09/13 10:53:29;;;;;;;11.88;8.88;;;34.70;36.60;;;;;;5046824;28;20056;-67
2021/09/13 10:56:05;;;;;;;11.55;8.50;;;34.40;37.60;;;;;;5029012;28;20038;-65
2021/09/13 10:58:33;;;;;;;12.88;8.35;;;34.80;37.60;;;;;;5033548;28;20032;-65
2021/09/13 11:01:02;;;;;;;11.30;8.00;;;35.30;37.00;;;;;;5031971;28;20033;-65
2021/09/13 11:06:15;;;;;;;16.77;9.00;;;35.20;36.20;;;;;;5033582;28;20138;-65
2021/09/13 11:09:03;;;;;;;10.98;8.82;;;34.50;36.60;;;;;;5033415;28;20022;-64
2021/09/13 11:11:34;;;;;;;12.45;8.90;;;33.90;37.00;;;;;;5031998;28;20468;-64
2021/09/13 11:14:20;;;;;;;13.20;9.10;;;33.40;38.10;;;;;;5031643;28;20025;-65
2021/09/13 11:17:01;;;;;;;12.48;9.05;;;33.30;38.60;;;;;;5032420;28;20033;-65
2021/09/13 11:19:30;;;;;;;14.00;9.05;;;33.50;38.30;;;;;;5032167;28;20045;-65
2021/09/13 11:22:01;;;;;;;12.85;9.80;;;34.00;38.30;;;;;;5032965;28;20129;-65
2021/09/13 11:24:37;;;;;;;11.50;8.85;;;34.20;37.80;;;;;;5032499;28;20068;-64
2021/09/13 11:27:06;;;;;;;12.00;9.35;;;33.60;38.00;;;;;;5033138;28;20017;-65
2021/09/13 11:29:34;;;;;;;12.25;9.07;;;33.00;39.20;;;;;;5032952;28;20369;-64
2021/09/13 11:32:11;;;;;;;14.43;9.85;;;32.90;39.30;;;;;;5034826;28;20068;-64
2021/09/13 11:34:37;;;;;;;11.45;9.15;;;32.70;39.50;;;;;;5036639;28;20021;-65
2021/09/13 11:37:08;;;;;;;13.77;9.65;;;32.20;39.60;;;;;;5035023;28;20125;-65
2021/09/13 11:39:45;;;;;;;13.18;9.75;;;32.00;40.00;;;;;;5035372;28;20026;-64
2021/09/13 11:42:13;;;;;;;12.18;9.35;;;32.40;40.10;;;;;;5036951;28;20041;-64
2021/09/13 11:44:48;;;;;;;12.30;9.32;;;33.00;39.90;;;;;;5035203;28;20465;-67
2021/09/13 11:47:16;;;;;;;10.73;9.10;;;33.30;39.80;;;;;;5035182;28;20026;-66
2021/09/13 11:49:45;;;;;;;15.88;9.48;;;33.70;39.60;;;;;;5035273;28;20035;-65
2021/09/13 11:52:17;;;;;;;11.35;8.80;;;34.00;39.40;;;;;;5036075;28;20040;-67
2021/09/13 11:54:52;;;;;;;10.65;8.93;;;34.20;39.00;;;;;;5035325;28;20538;-64
2021/09/13 11:57:42;;;;;;;11.90;9.52;;;34.20;38.40;;;;;;5035164;28;20041;-64
2021/09/13 12:00:21;;;;;;;13.70;9.18;;;34.10;38.00;;;;;;5036385;28;20036;-64
2021/09/13 12:03:00;;;;;;;11.75;9.07;;;33.60;38.40;;;;;;5035249;28;20037;-65
2021/09/13 12:05:30;;;;;;;12.77;9.57;;;32.80;39.10;;;;;;5034654;28;20092;-64
2021/09/13 12:07:57;;;;;;;13.73;9.57;;;32.20;40.20;;;;;;5036285;28;20061;-64
2021/09/13 12:10:26;;;;;;;13.52;9.88;;;32.00;40.50;;;;;;5034600;28;20025;-67
2021/09/13 12:12:54;;;;;;;13.55;10.10;;;31.80;40.70;;;;;;5036290;28;20044;-64
2021/09/13 12:15:23;;;;;;;10.75;9.63;;;31.80;40.90;;;;;;5034632;28;20088;-64
2021/09/13 12:17:51;;;;;;;11.88;10.00;;;31.70;41.10;;;;;;5034732;28;20075;-65
2021/09/13 12:20:20;;;;;;;14.18;10.02;;;31.60;41.60;;;;;;5034768;28;20116;-65
2021/09/13 12:22:49;;;;;;;14.50;10.00;;;31.50;41.60;;;;;;5034564;28;20423;-64
2021/09/13 12:25:19;;;;;;;16.20;10.13;;;31.30;42.00;;;;;;5035029;28;20084;-65
2021/09/13 12:27:46;;;;;;;16.17;10.93;;;31.00;42.50;;;;;;5034553;28;20088;-65
2021/09/13 12:30:18;;;;;;;16.58;11.32;;;30.90;42.90;;;;;;5034458;28;20029;-65
2021/09/13 12:33:03;;;;;;;15.40;11.10;;;30.70;42.60;;;;;;5035680;28;20052;-64
2021/09/13 12:35:36;;;;;;;14.05;11.25;;;30.40;43.30;;;;;;5034072;28;20033;-66
2021/09/13 12:38:06;;;;;;;13.77;10.95;;;30.10;43.60;;;;;;5034564;28;20120;-65
2021/09/13 12:40:45;;;;;;;13.15;10.63;;;30.00;43.70;;;;;;5034512;28;20112;-65
2021/09/13 12:43:17;;;;;;;17.13;11.52;;;29.90;43.80;;;;;;5034612;28;20108;-65
2021/09/13 12:45:42;;;;;;;18.45;11.32;;;29.90;44.30;;;;;;5035508;28;20120;-65
2021/09/13 12:48:08;;;;;;;13.73;11.35;;;29.80;44.10;;;;;;5035383;28;20472;-65